Time;durP1;ratioP1;P1;durP2;ratioP2;P2;SDS_P1;SDS_P2;PMS_P1;PMS_P2;Temp;Humidity;BMP_temperature;BMP_pressure;BME280_temperature;BME280_humidity;BME280_pressure;Samples;Min_cycle;Max_cycle;Signal;HPM_P1;HPM_P2
2022/12/19 00:01:33;;;;;;;19.15;11.45;;;-2.70;99.90;;;;;;4946321;29;20498;-68
2022/12/19 00:04:03;;;;;;;16.60;10.60;;;-2.70;99.90;;;;;;4956003;28;20631;-67
2022/12/19 00:06:30;;;;;;;16.40;8.25;;;-2.70;99.90;;;;;;4961316;28;20035;-67
2022/12/19 00:08:59;;;;;;;17.42;7.93;;;-2.70;99.90;;;;;;4954628;29;20031;-67
2022/12/19 00:11:26;;;;;;;15.73;8.57;;;-2.60;99.90;;;;;;4940933;29;20036;-67
2022/12/19 00:13:52;;;;;;;14.43;8.32;;;-2.60;99.90;;;;;;4937008;29;20122;-68
2022/12/19 00:16:22;;;;;;;22.98;11.23;;;-2.50;99.90;;;;;;4955524;29;20098;-68
2022/12/19 00:18:49;;;;;;;16.05;10.27;;;-2.50;99.90;;;;;;4954790;29;20110;-68
2022/12/19 00:21:19;;;;;;;24.13;9.02;;;-2.40;99.90;;;;;;4955206;28;20054;-68
2022/12/19 00:23:45;;;;;;;15.55;11.93;;;-2.50;99.90;;;;;;4919804;29;20047;-68
2022/12/19 00:26:17;;;;;;;20.17;10.13;;;-2.50;99.90;;;;;;4946007;29;20035;-67
2022/12/19 00:28:45;;;;;;;14.55;7.90;;;-2.40;99.90;;;;;;4936981;29;20039;-67
2022/12/19 00:31:12;;;;;;;14.88;7.60;;;-2.40;99.90;;;;;;4960524;28;20039;-67
2022/12/19 00:33:38;;;;;;;15.23;8.50;;;-2.40;99.90;;;;;;4955307;29;20074;-68
2022/12/19 00:36:09;;;;;;;15.23;11.02;;;-2.30;99.90;;;;;;4944528;29;20059;-67
2022/12/19 00:38:34;;;;;;;11.43;9.02;;;-2.30;99.90;;;;;;4953363;29;20554;-67
2022/12/19 00:41:13;;;;;;;23.02;9.98;;;-2.30;99.90;;;;;;4954720;28;20035;-67
2022/12/19 00:43:39;;;;;;;32.42;11.02;;;-2.20;99.90;;;;;;4954258;29;20038;-67
2022/12/19 00:46:09;;;;;;;15.25;8.50;;;-2.20;99.90;;;;;;4944438;29;20043;-67
2022/12/19 00:48:35;;;;;;;23.38;9.77;;;-2.20;99.90;;;;;;4953937;29;20063;-67
2022/12/19 00:51:13;;;;;;;27.05;10.65;;;-2.10;99.90;;;;;;4944394;29;20066;-68
2022/12/19 00:53:39;;;;;;;18.85;9.70;;;-2.10;99.90;;;;;;4953981;29;20054;-67
2022/12/19 00:56:10;;;;;;;24.52;10.30;;;-2.00;99.90;;;;;;4954966;28;20035;-67
2022/12/19 00:58:36;;;;;;;11.90;7.38;;;-1.90;99.90;;;;;;4955453;29;20428;-67
2022/12/19 01:01:16;;;;;;;23.85;12.88;;;-1.90;99.90;;;;;;4954307;29;20039;-67
2022/12/19 01:03:42;;;;;;;14.60;10.05;;;-1.90;99.90;;;;;;4961400;23;20059;-65
2022/12/19 01:06:08;;;;;;;28.73;12.10;;;-1.80;99.90;;;;;;4952864;29;20388;-65
2022/12/19 01:08:34;;;;;;;25.42;11.05;;;-1.80;99.90;;;;;;4954332;28;20395;-65
2022/12/19 01:10:59;;;;;;;26.38;9.23;;;-1.80;99.90;;;;;;4954828;29;20042;-65
2022/12/19 01:13:29;;;;;;;18.10;11.10;;;-1.70;99.90;;;;;;4953909;28;20106;-66
2022/12/19 01:15:55;;;;;;;19.80;9.35;;;-1.60;99.90;;;;;;4963504;28;20035;-66
2022/12/19 01:18:21;;;;;;;32.28;10.05;;;-1.60;99.90;;;;;;4949500;29;20419;-65
2022/12/19 01:20:47;;;;;;;18.10;6.95;;;-1.60;99.90;;;;;;4954272;29;20031;-65
2022/12/19 01:23:15;;;;;;;23.70;9.07;;;-1.60;99.90;;;;;;4953821;28;20351;-65
2022/12/19 01:25:42;;;;;;;14.45;8.07;;;-1.60;99.90;;;;;;4954897;28;20035;-65
2022/12/19 01:28:13;;;;;;;21.77;10.60;;;-1.50;99.90;;;;;;4948231;29;20027;-65
2022/12/19 01:30:40;;;;;;;23.60;8.52;;;-1.50;99.90;;;;;;4945366;29;20031;-65
2022/12/19 01:33:11;;;;;;;31.10;9.60;;;-1.40;99.90;;;;;;4948668;29;20094;-65
2022/12/19 01:35:38;;;;;;;21.67;10.23;;;-1.40;99.90;;;;;;4954551;28;20034;-65
2022/12/19 01:38:04;;;;;;;22.27;8.05;;;-1.30;99.90;;;;;;4948317;29;20059;-65
2022/12/19 01:40:30;;;;;;;18.25;7.85;;;-1.30;99.90;;;;;;4954271;28;20086;-65
2022/12/19 01:42:56;;;;;;;15.75;8.45;;;-1.20;99.90;;;;;;4953684;28;20069;-65
2022/12/19 01:45:31;;;;;;;27.88;8.77;;;-1.20;99.90;;;;;;4954377;29;20059;-66
2022/12/19 01:48:31;;;;;;;31.98;10.10;;;-1.10;99.90;;;;;;4953478;28;20399;-65
2022/12/19 01:51:15;;;;;;;16.23;7.20;;;-1.10;99.90;;;;;;4946607;29;20504;-65
2022/12/19 01:53:48;;;;;;;16.75;8.73;;;-1.10;99.90;;;;;;4948066;29;20044;-65
2022/12/19 01:56:16;;;;;;;26.30;7.90;;;-1.00;99.90;;;;;;4934047;29;20746;-65
2022/12/19 01:58:46;;;;;;;11.82;6.80;;;-1.00;99.90;;;;;;4947896;29;20086;-64
2022/12/19 02:01:13;;;;;;;24.90;10.32;;;-1.00;99.90;;;;;;4948698;29;20035;-64
2022/12/19 02:03:40;;;;;;;19.17;7.97;;;-0.90;99.90;;;;;;4947215;29;20035;-65
2022/12/19 02:06:07;;;;;;;14.38;5.47;;;-0.90;99.90;;;;;;4932632;29;20038;-65
2022/12/19 02:08:34;;;;;;;9.95;5.68;;;-0.90;99.90;;;;;;4939173;29;20042;-65
2022/12/19 02:11:00;;;;;;;20.08;6.50;;;-0.90;99.90;;;;;;4946793;29;20047;-65
2022/12/19 02:13:26;;;;;;;19.13;7.93;;;-0.80;99.90;;;;;;4952920;29;20035;-65
2022/12/19 02:16:18;;;;;;;20.35;8.52;;;-0.80;99.90;;;;;;4944770;28;20135;-65
2022/12/19 02:19:08;;;;;;;17.38;7.95;;;-0.80;99.90;;;;;;4944030;29;20122;-66
2022/12/19 02:21:56;;;;;;;13.15;8.35;;;-0.70;99.90;;;;;;4950991;29;20391;-66
2022/12/19 02:25:13;;;;;;;30.65;7.68;;;-0.70;99.90;;;;;;4944588;29;20043;-65
2022/12/19 02:28:18;;;;;;;14.18;9.00;;;-0.70;99.90;;;;;;4961061;28;20046;-65
2022/12/19 02:31:26;;;;;;;13.27;5.85;;;-0.60;99.90;;;;;;4946067;29;20067;-65
2022/12/19 02:34:01;;;;;;;14.98;6.45;;;-0.70;99.90;;;;;;4906096;29;20054;-66
2022/12/19 02:36:42;;;;;;;19.98;5.80;;;-0.70;99.90;;;;;;4953262;29;20166;-65
2022/12/19 02:39:25;;;;;;;13.32;8.18;;;-0.70;99.90;;;;;;4944151;29;20039;-64
2022/12/19 02:41:56;;;;;;;12.77;6.88;;;-0.70;99.90;;;;;;4951494;29;20042;-64
2022/12/19 02:44:29;;;;;;;18.95;9.55;;;-0.70;99.90;;;;;;4957319;28;20047;-65
2022/12/19 02:46:59;;;;;;;13.65;7.80;;;-0.70;99.90;;;;;;4935136;29;20130;-65
2022/12/19 02:49:26;;;;;;;15.27;6.60;;;-0.60;99.90;;;;;;4959996;28;20615;-66
2022/12/19 02:51:52;;;;;;;16.27;8.23;;;-0.60;99.90;;;;;;4950615;29;20039;-65
2022/12/19 02:54:18;;;;;;;20.60;8.68;;;-0.60;99.90;;;;;;4952975;29;20039;-64
2022/12/19 02:56:58;;;;;;;14.52;8.20;;;-0.50;99.90;;;;;;4953080;29;20035;-65
2022/12/19 02:59:54;;;;;;;18.65;6.50;;;-0.50;99.90;;;;;;4957352;28;20122;-65
2022/12/19 03:02:44;;;;;;;17.13;7.43;;;-0.40;99.90;;;;;;4951808;28;20035;-64
2022/12/19 03:06:23;;;;;;;21.75;10.02;;;-0.40;99.90;;;;;;4943639;29;20542;-65
2022/12/19 03:09:12;;;;;;;15.05;8.18;;;-0.30;99.90;;;;;;4932748;29;20044;-64
2022/12/19 03:11:40;;;;;;;21.13;8.82;;;-0.30;99.90;;;;;;4930558;29;20404;-64
2022/12/19 03:14:13;;;;;;;19.67;7.32;;;-0.30;99.90;;;;;;4919773;29;20111;-65
2022/12/19 03:16:39;;;;;;;18.70;8.38;;;-0.30;99.90;;;;;;4930855;29;20127;-65
2022/12/19 03:19:10;;;;;;;14.18;7.43;;;-0.20;99.90;;;;;;4919683;29;20628;-64
2022/12/19 03:21:49;;;;;;;17.02;7.80;;;-0.20;99.90;;;;;;4930743;29;20354;-64
2022/12/19 03:24:16;;;;;;;22.75;8.00;;;-0.20;99.90;;;;;;4923034;29;20055;-64
2022/12/19 03:27:00;;;;;;;16.00;8.60;;;-0.20;99.90;;;;;;4901703;29;20067;-64
2022/12/19 03:29:58;;;;;;;15.57;9.73;;;-0.20;99.90;;;;;;4910727;29;20039;-64
2022/12/19 03:32:27;;;;;;;13.40;5.80;;;-0.20;99.90;;;;;;4912081;29;20459;-66
2022/12/19 03:35:08;;;;;;;21.20;8.95;;;-0.30;99.90;;;;;;4922959;29;20144;-66
2022/12/19 03:37:38;;;;;;;12.13;8.23;;;-0.30;99.90;;;;;;4926105;29;20614;-66
2022/12/19 03:40:15;;;;;;;18.30;7.15;;;-0.30;99.90;;;;;;4946989;28;20594;-66
2022/12/19 03:45:54;;;;;;;19.05;7.95;;;-0.30;99.90;;;;;;4959107;28;20042;-65
2022/12/19 03:48:31;;;;;;;24.98;8.65;;;-0.40;99.90;;;;;;4946460;29;20039;-66
2022/12/19 03:51:39;;;;;;;21.00;7.70;;;-0.40;99.90;;;;;;4951936;29;20039;-65
2022/12/19 03:54:30;;;;;;;17.40;8.85;;;-0.40;99.90;;;;;;4958715;28;20041;-66
2022/12/19 03:57:42;;;;;;;16.67;7.28;;;-0.40;99.90;;;;;;4932182;29;20050;-65
2022/12/19 04:00:13;;;;;;;24.35;8.77;;;-0.50;99.90;;;;;;4902629;29;20051;-66
2022/12/19 04:02:43;;;;;;;;;;;-0.40;99.90;;;;;;4935139;29;20078;-66
2022/12/19 04:05:13;;;;;;;21.73;8.55;;;-0.40;99.90;;;;;;4958616;28;19918;-65
2022/12/19 04:07:41;;;;;;;23.93;7.43;;;-0.40;99.90;;;;;;4952064;28;20047;-66
2022/12/19 04:10:13;;;;;;;20.35;8.50;;;-0.40;99.90;;;;;;4942545;29;20518;-66
2022/12/19 04:12:50;;;;;;;13.55;6.40;;;-0.40;99.90;;;;;;4946799;29;20117;-66
2022/12/19 04:15:17;;;;;;;27.95;10.52;;;-0.40;99.90;;;;;;4942862;29;20031;-66
2022/12/19 04:17:49;;;;;;;14.65;7.93;;;-0.40;99.90;;;;;;4945812;29;20042;-65
2022/12/19 04:20:21;;;;;;;14.52;6.07;;;-0.40;99.90;;;;;;4942922;29;20031;-64
2022/12/19 04:22:56;;;;;;;18.65;9.60;;;-0.30;99.90;;;;;;4951120;28;20043;-65
2022/12/19 04:25:31;;;;;;;20.80;6.40;;;-0.30;99.90;;;;;;4942711;29;20089;-64
2022/12/19 04:28:09;;;;;;;15.60;7.50;;;-0.20;99.90;;;;;;4945693;29;20058;-64
2022/12/19 04:30:38;;;;;;;11.88;7.70;;;-0.20;99.90;;;;;;4942610;29;20042;-66
2022/12/19 04:33:04;;;;;;;16.73;7.90;;;-0.20;99.90;;;;;;4945576;29;20402;-64
2022/12/19 04:35:30;;;;;;;23.88;7.63;;;-0.10;99.90;;;;;;4942713;29;20035;-66
2022/12/19 04:37:55;;;;;;;13.25;7.47;;;0.00;99.90;;;;;;4926972;29;20043;-64
2022/12/19 04:40:21;;;;;;;19.23;7.35;;;0.00;99.90;;;;;;4945453;29;20391;-66
2022/12/19 04:42:47;;;;;;;23.17;8.32;;;0.00;99.90;;;;;;4954770;29;20047;-66
2022/12/19 04:45:12;;;;;;;13.90;6.88;;;0.00;99.90;;;;;;4955492;29;20036;-66
2022/12/19 04:47:38;;;;;;;23.25;7.43;;;0.00;99.90;;;;;;4954257;29;20532;-66
2022/12/19 04:50:04;;;;;;;13.93;7.28;;;0.00;99.90;;;;;;4955031;28;20027;-64
2022/12/19 04:52:30;;;;;;;22.00;7.65;;;0.00;99.90;;;;;;4954641;28;20381;-64
2022/12/19 04:54:56;;;;;;;23.50;10.93;;;0.00;99.90;;;;;;4929767;29;20066;-64
2022/12/19 04:57:22;;;;;;;29.30;7.25;;;0.00;99.90;;;;;;4967639;28;20495;-63
2022/12/19 04:59:47;;;;;;;15.88;6.70;;;0.00;99.90;;;;;;4954862;28;20042;-66
2022/12/19 05:02:13;;;;;;;21.15;10.27;;;-0.10;99.90;;;;;;4954449;28;20671;-64
2022/12/19 05:04:39;;;;;;;12.27;7.90;;;0.00;99.90;;;;;;4954870;29;20117;-64
2022/12/19 05:07:04;;;;;;;16.40;8.32;;;0.00;99.90;;;;;;4954578;28;20479;-64
2022/12/19 05:09:30;;;;;;;19.52;8.27;;;0.10;99.90;;;;;;4954945;29;20042;-65
2022/12/19 05:11:55;;;;;;;19.38;6.97;;;0.20;99.90;;;;;;4953841;29;20118;-65
2022/12/19 05:14:21;;;;;;;17.45;8.35;;;0.20;99.90;;;;;;4954127;29;20039;-64
2022/12/19 05:16:47;;;;;;;18.55;7.78;;;0.30;99.90;;;;;;4935809;29;20090;-65
2022/12/19 05:19:13;;;;;;;17.00;9.02;;;0.30;99.90;;;;;;4954512;29;20051;-64
2022/12/19 05:21:40;;;;;;;18.35;7.57;;;0.30;99.90;;;;;;4954608;29;20062;-64
2022/12/19 05:24:06;;;;;;;21.98;9.30;;;0.30;99.90;;;;;;4953783;28;20087;-65
2022/12/19 05:26:38;;;;;;;20.00;8.60;;;0.20;99.90;;;;;;4954562;29;20106;-65
2022/12/19 05:29:04;;;;;;;13.90;8.10;;;0.30;99.90;;;;;;4953674;28;20031;-65
2022/12/19 05:31:32;;;;;;;13.57;5.78;;;0.30;99.90;;;;;;4951508;29;20050;-66
2022/12/19 05:33:58;;;;;;;19.95;7.50;;;0.30;99.90;;;;;;4946234;29;20488;-66
2022/12/19 05:36:23;;;;;;;17.48;8.00;;;0.30;99.90;;;;;;4954395;29;20062;-65
2022/12/19 05:38:49;;;;;;;18.13;6.85;;;0.30;99.90;;;;;;4953634;28;20031;-64
2022/12/19 05:41:20;;;;;;;29.33;10.85;;;0.30;99.90;;;;;;4949311;29;20027;-65
2022/12/19 05:43:51;;;;;;;22.88;7.90;;;0.30;99.90;;;;;;4953193;28;20038;-65
2022/12/19 05:46:18;;;;;;;16.55;6.65;;;0.30;99.90;;;;;;4949815;29;20086;-65
2022/12/19 05:48:43;;;;;;;14.27;7.80;;;0.40;99.90;;;;;;4953111;28;20031;-65
2022/12/19 05:51:09;;;;;;;16.60;7.70;;;0.40;99.90;;;;;;4953472;28;20042;-65
2022/12/19 05:53:36;;;;;;;18.60;7.63;;;0.40;99.90;;;;;;4951990;28;20051;-67
2022/12/19 05:56:12;;;;;;;24.63;9.25;;;0.50;99.90;;;;;;4942130;28;20047;-65
2022/12/19 05:58:40;;;;;;;21.63;8.43;;;0.60;99.90;;;;;;4955118;28;20046;-66
2022/12/19 06:01:13;;;;;;;14.25;7.20;;;0.50;99.90;;;;;;4937141;29;20052;-65
2022/12/19 06:03:40;;;;;;;23.35;9.30;;;0.50;99.90;;;;;;4934591;29;20039;-65
2022/12/19 06:06:10;;;;;;;15.30;7.28;;;0.50;99.90;;;;;;4956523;28;20031;-65
2022/12/19 06:08:36;;;;;;;17.15;9.13;;;0.60;99.90;;;;;;4953156;28;20054;-65
2022/12/19 06:11:04;;;;;;;16.23;6.93;;;0.60;99.90;;;;;;4946781;29;20268;-67
2022/12/19 06:13:30;;;;;;;18.85;7.28;;;0.60;99.90;;;;;;4952301;28;20441;-66
2022/12/19 06:15:58;;;;;;;20.17;8.45;;;0.60;99.90;;;;;;4945486;29;20361;-66
2022/12/19 06:18:25;;;;;;;13.73;6.82;;;0.70;99.90;;;;;;4948960;29;20030;-67
2022/12/19 06:21:01;;;;;;;16.83;6.35;;;0.70;99.90;;;;;;4937074;29;20027;-68
2022/12/19 06:23:30;;;;;;;13.73;6.70;;;0.70;99.90;;;;;;4953163;28;20117;-65
2022/12/19 06:25:57;;;;;;;15.73;7.50;;;0.80;99.90;;;;;;4941527;29;20487;-66
2022/12/19 06:28:28;;;;;;;16.23;8.02;;;0.80;99.90;;;;;;4930769;29;20036;-66
2022/12/19 06:31:02;;;;;;;21.87;9.23;;;0.80;99.90;;;;;;4952797;28;20027;-64
2022/12/19 06:33:30;;;;;;;15.82;7.00;;;0.90;99.90;;;;;;4946324;29;20031;-64
2022/12/19 06:36:05;;;;;;;19.17;8.73;;;0.90;99.90;;;;;;4952001;28;20039;-64
2022/12/19 06:38:32;;;;;;;15.00;7.35;;;1.00;99.90;;;;;;4952607;29;20440;-64
2022/12/19 06:43:42;;;;;;;14.60;7.85;;;1.20;99.90;;;;;;4951547;29;20035;-64
2022/12/19 06:46:08;;;;;;;13.57;7.38;;;1.20;99.90;;;;;;4945726;29;20135;-67
2022/12/19 06:48:34;;;;;;;16.17;7.68;;;1.20;99.90;;;;;;4941607;28;20054;-64
2022/12/19 06:51:00;;;;;;;21.85;6.53;;;1.30;99.90;;;;;;4941535;29;20058;-64
2022/12/19 06:53:26;;;;;;;20.05;8.82;;;1.30;99.90;;;;;;4953531;29;20031;-64
2022/12/19 06:55:57;;;;;;;16.63;6.80;;;1.40;99.90;;;;;;4938628;29;20042;-65
2022/12/19 06:58:23;;;;;;;16.70;6.95;;;1.40;99.90;;;;;;4935015;29;20039;-65
2022/12/19 07:00:49;;;;;;;20.75;6.70;;;1.30;99.90;;;;;;4952149;28;20023;-65
2022/12/19 07:03:26;;;;;;;13.80;7.32;;;1.40;99.90;;;;;;4959938;23;20072;-67
2022/12/19 07:05:52;;;;;;;9.35;6.38;;;1.30;99.90;;;;;;4935897;29;20043;-68
2022/12/19 07:08:18;;;;;;;13.60;7.07;;;1.40;99.90;;;;;;4947827;29;20024;-69
2022/12/19 07:10:44;;;;;;;15.45;7.28;;;1.40;99.90;;;;;;4950377;29;20042;-69
2022/12/19 07:13:09;;;;;;;24.77;7.90;;;1.30;99.90;;;;;;4950362;29;20035;-69
2022/12/19 07:15:36;;;;;;;16.73;6.70;;;1.30;99.90;;;;;;4952207;29;20479;-69
2022/12/19 07:18:04;;;;;;;17.08;7.63;;;1.30;99.90;;;;;;4932902;29;20041;-70
2022/12/19 07:20:33;;;;;;;16.33;7.18;;;1.30;99.90;;;;;;4920278;29;20475;-69
2022/12/19 07:22:59;;;;;;;18.70;8.32;;;1.30;99.90;;;;;;4934423;29;20049;-69
2022/12/19 07:25:24;;;;;;;11.45;6.25;;;1.30;99.90;;;;;;4951387;28;20115;-70
2022/12/19 07:27:51;;;;;;;20.30;8.35;;;1.30;99.90;;;;;;4934121;29;20042;-69
2022/12/19 07:30:17;;;;;;;13.77;6.78;;;1.30;99.90;;;;;;4934725;29;20058;-69
2022/12/19 07:32:43;;;;;;;25.17;8.55;;;1.30;99.90;;;;;;4934770;29;20686;-69
2022/12/19 07:35:09;;;;;;;14.88;7.72;;;1.30;99.90;;;;;;4949571;29;20031;-69
2022/12/19 07:37:35;;;;;;;11.02;6.90;;;1.30;99.90;;;;;;4948606;29;20155;-69
2022/12/19 07:40:00;;;;;;;13.80;8.40;;;1.30;99.90;;;;;;4934032;29;20047;-69
2022/12/19 07:42:26;;;;;;;19.05;7.57;;;1.30;99.90;;;;;;4932165;29;20047;-69
2022/12/19 07:44:52;;;;;;;12.43;5.80;;;1.40;99.90;;;;;;4946675;29;20039;-68
2022/12/19 07:47:17;;;;;;;13.68;5.63;;;1.40;99.90;;;;;;4952261;29;20066;-69
2022/12/19 07:49:43;;;;;;;21.38;7.28;;;1.40;99.90;;;;;;4951403;29;20058;-69
2022/12/19 07:52:09;;;;;;;12.38;7.40;;;1.40;99.90;;;;;;4952043;29;20110;-69
2022/12/19 07:54:35;;;;;;;21.90;8.00;;;1.50;99.90;;;;;;4951493;29;20055;-69
2022/12/19 07:57:01;;;;;;;19.42;8.70;;;1.50;99.90;;;;;;4955410;28;20027;-69
2022/12/19 07:59:27;;;;;;;8.23;6.07;;;1.50;99.90;;;;;;4944499;29;20837;-70
2022/12/19 08:01:53;;;;;;;26.42;8.63;;;1.50;99.90;;;;;;4950426;29;20035;-70
2022/12/19 08:04:18;;;;;;;14.77;8.30;;;1.60;99.90;;;;;;4955154;28;20027;-69
2022/12/19 08:06:45;;;;;;;26.55;8.88;;;1.60;99.90;;;;;;4925414;29;20070;-69
2022/12/19 08:09:11;;;;;;;22.13;7.20;;;1.60;99.90;;;;;;4933275;29;20038;-70
2022/12/19 08:11:37;;;;;;;13.98;9.05;;;1.60;99.90;;;;;;4949065;29;20077;-70
2022/12/19 08:14:03;;;;;;;18.65;7.55;;;1.70;99.90;;;;;;4936201;29;20620;-69
2022/12/19 08:16:29;;;;;;;18.17;7.53;;;1.70;99.90;;;;;;4954852;29;20074;-69
2022/12/19 08:18:55;;;;;;;14.68;7.43;;;1.80;99.90;;;;;;4955423;29;20050;-68
2022/12/19 08:21:21;;;;;;;22.95;8.50;;;1.80;99.90;;;;;;4951117;29;20382;-68
2022/12/19 08:23:47;;;;;;;24.50;8.05;;;1.90;99.90;;;;;;4938442;29;20541;-66
2022/12/19 08:26:20;;;;;;;15.13;7.30;;;1.90;99.90;;;;;;4956865;28;20118;-68
2022/12/19 08:28:46;;;;;;;14.38;6.25;;;1.90;99.90;;;;;;4938141;29;20467;-72
2022/12/19 08:31:16;;;;;;;19.05;7.63;;;1.90;99.90;;;;;;4954331;29;20054;-67
2022/12/19 08:33:42;;;;;;;16.45;6.75;;;1.90;99.90;;;;;;4950745;29;20039;-67
2022/12/19 08:36:14;;;;;;;14.13;6.70;;;2.00;99.90;;;;;;4936806;29;20113;-67
2022/12/19 08:38:40;;;;;;;12.93;6.93;;;2.00;99.90;;;;;;4922455;29;20039;-68
2022/12/19 08:41:08;;;;;;;16.73;6.55;;;2.10;99.90;;;;;;4936713;29;20451;-66
2022/12/19 08:43:33;;;;;;;15.07;7.20;;;2.10;99.90;;;;;;4955007;28;20066;-66
2022/12/19 08:45:59;;;;;;;21.10;7.10;;;2.20;99.90;;;;;;4954485;29;20074;-66
2022/12/19 08:48:25;;;;;;;20.20;8.82;;;2.20;99.90;;;;;;4954948;29;20661;-66
2022/12/19 08:50:58;;;;;;;27.13;9.00;;;2.20;99.90;;;;;;4954054;29;20118;-68
2022/12/19 08:53:27;;;;;;;18.27;8.82;;;2.20;99.90;;;;;;4959186;28;20090;-67
2022/12/19 08:56:01;;;;;;;16.58;6.97;;;2.20;99.90;;;;;;4939905;29;20114;-67
2022/12/19 08:58:29;;;;;;;10.93;6.07;;;2.30;99.90;;;;;;4943479;29;20505;-67
2022/12/19 09:00:59;;;;;;;15.30;8.07;;;2.30;99.90;;;;;;4953733;28;20719;-68
2022/12/19 09:03:25;;;;;;;16.40;7.63;;;2.30;99.90;;;;;;4934080;29;20082;-68
2022/12/19 09:05:58;;;;;;;24.92;7.63;;;2.40;99.90;;;;;;4949576;29;20031;-68
2022/12/19 09:08:25;;;;;;;20.65;8.10;;;2.40;99.90;;;;;;4950921;29;20531;-68
2022/12/19 09:10:58;;;;;;;18.52;8.15;;;2.50;99.90;;;;;;4936207;29;20038;-68
2022/12/19 09:13:29;;;;;;;17.25;8.50;;;2.50;99.90;;;;;;4932964;29;20031;-68
2022/12/19 09:16:15;;;;;;;9.30;6.03;;;2.50;99.90;;;;;;4952004;29;20065;-68
2022/12/19 09:18:42;;;;;;;12.98;7.55;;;2.50;99.90;;;;;;4937020;29;20035;-68
2022/12/19 09:21:08;;;;;;;18.05;8.70;;;2.60;99.90;;;;;;4914062;29;20115;-66
2022/12/19 09:23:35;;;;;;;14.45;7.05;;;2.60;99.90;;;;;;4941768;29;20118;-66
2022/12/19 09:26:09;;;;;;;11.68;5.97;;;2.60;99.90;;;;;;4949199;28;20439;-67
2022/12/19 09:28:37;;;;;;;15.70;6.78;;;2.70;99.90;;;;;;4936967;29;20027;-67
2022/12/19 09:31:06;;;;;;;11.57;5.90;;;2.70;99.90;;;;;;4941609;28;20077;-67
2022/12/19 09:33:34;;;;;;;19.02;9.25;;;2.70;99.90;;;;;;4953549;28;20043;-67
2022/12/19 09:36:01;;;;;;;17.08;7.35;;;2.80;99.90;;;;;;4952138;29;20031;-67
2022/12/19 09:38:29;;;;;;;32.20;7.70;;;2.80;99.90;;;;;;4937009;29;20035;-67
2022/12/19 09:41:38;;;;;;;19.38;7.13;;;2.80;99.90;;;;;;4953224;29;20055;-67
2022/12/19 09:45:10;;;;;;;21.33;7.25;;;2.80;99.90;;;;;;4912326;29;20803;-68
2022/12/19 09:47:41;;;;;;;;;;;2.80;99.90;;;;;;4954042;29;20035;-67
2022/12/19 09:50:51;;;;;;;17.77;8.43;;;2.90;99.90;;;;;;4949744;29;20019;-66
2022/12/19 09:53:31;;;;;;;17.30;7.00;;;2.90;99.90;;;;;;4921583;29;20046;-67
2022/12/19 09:55:58;;;;;;;13.60;7.20;;;3.10;99.90;;;;;;4953979;28;20074;-67
2022/12/19 09:58:36;;;;;;;18.65;8.80;;;3.10;99.90;;;;;;4936160;29;20071;-69
2022/12/19 10:01:12;;;;;;;13.00;8.20;;;3.10;99.90;;;;;;4932083;29;20044;-67
2022/12/19 10:03:45;;;;;;;25.35;8.40;;;3.10;99.90;;;;;;4948167;28;20126;-68
2022/12/19 10:06:23;;;;;;;30.23;10.38;;;3.20;99.90;;;;;;4939181;28;20047;-69
2022/12/19 10:08:51;;;;;;;19.60;7.60;;;3.20;99.90;;;;;;4952435;29;20027;-67
2022/12/19 10:11:16;;;;;;;20.58;6.95;;;3.20;99.90;;;;;;4951377;28;20039;-67
2022/12/19 10:14:25;;;;;;;19.65;7.10;;;3.30;99.90;;;;;;4953426;29;20039;-68
2022/12/19 10:17:22;;;;;;;20.13;10.10;;;3.30;99.90;;;;;;4946844;29;20061;-68
2022/12/19 10:20:02;;;;;;;18.63;7.43;;;3.40;99.90;;;;;;4921443;29;20372;-68
2022/12/19 10:22:49;;;;;;;21.40;7.47;;;3.40;99.90;;;;;;4958248;28;20578;-68
2022/12/19 10:25:31;;;;;;;18.95;8.35;;;3.50;99.90;;;;;;4955500;28;20345;-68
2022/12/19 10:28:36;;;;;;;18.17;7.65;;;3.50;99.90;;;;;;4938432;29;20391;-67
2022/12/19 10:31:26;;;;;;;23.15;7.70;;;3.60;99.90;;;;;;4941661;29;20491;-67
2022/12/19 10:34:12;;;;;;;16.73;7.90;;;3.60;99.90;;;;;;4936858;29;20038;-67
2022/12/19 10:36:44;;;;;;;18.85;8.90;;;3.60;99.90;;;;;;4936460;29;20375;-67
2022/12/19 10:39:30;;;;;;;12.85;4.43;;;3.70;99.90;;;;;;4940365;29;20027;-67
2022/12/19 10:42:08;;;;;;;14.00;6.05;;;3.70;99.90;;;;;;4935119;29;20546;-67
2022/12/19 10:44:37;;;;;;;14.25;5.88;;;3.70;99.90;;;;;;4938905;28;20039;-68
2022/12/19 10:47:03;;;;;;;24.38;8.07;;;3.80;99.90;;;;;;4952975;29;20031;-68
2022/12/19 10:49:29;;;;;;;22.50;7.47;;;3.80;99.90;;;;;;4950842;28;20083;-68
2022/12/19 10:51:55;;;;;;;18.27;7.32;;;3.80;99.90;;;;;;4930937;29;20035;-68
2022/12/19 10:54:37;;;;;;;14.38;6.50;;;3.90;99.90;;;;;;4941713;29;20043;-68
2022/12/19 10:57:21;;;;;;;16.00;6.85;;;3.90;99.90;;;;;;4933600;28;20103;-68
2022/12/19 11:00:05;;;;;;;14.27;5.45;;;3.90;99.90;;;;;;4945154;29;20040;-69
2022/12/19 11:02:42;;;;;;;16.23;6.95;;;3.90;99.90;;;;;;4945366;29;20035;-68
2022/12/19 11:05:36;;;;;;;15.15;8.13;;;4.00;99.90;;;;;;4948429;29;20062;-67
2022/12/19 11:08:08;;;;;;;17.95;6.45;;;4.00;99.90;;;;;;4936147;29;20499;-68
2022/12/19 11:10:40;;;;;;;13.98;5.88;;;4.10;99.90;;;;;;4952147;29;20046;-69
2022/12/19 11:13:20;;;;;;;15.18;5.85;;;4.20;99.90;;;;;;4952018;29;20078;-68
2022/12/19 11:15:57;;;;;;;18.13;6.47;;;4.30;99.90;;;;;;4945134;29;20070;-69
2022/12/19 11:18:36;;;;;;;18.15;7.82;;;4.40;99.90;;;;;;4951521;28;20031;-70
2022/12/19 11:21:13;;;;;;;22.08;7.63;;;4.40;99.90;;;;;;4943741;29;20043;-68
2022/12/19 11:23:56;;;;;;;18.27;7.55;;;4.40;99.90;;;;;;4933978;29;20045;-64
2022/12/19 11:26:44;;;;;;;15.07;6.78;;;4.50;99.90;;;;;;4950976;28;20039;-65
2022/12/19 11:29:34;;;;;;;16.17;6.68;;;4.50;99.90;;;;;;4946815;29;20391;-65
2022/12/19 11:32:01;;;;;;;27.42;8.02;;;4.50;99.90;;;;;;4929447;29;20114;-64
2022/12/19 11:34:31;;;;;;;29.90;8.32;;;4.50;99.90;;;;;;4951263;29;20039;-64
2022/12/19 11:37:18;;;;;;;17.38;7.35;;;4.40;99.90;;;;;;4944989;29;20039;-67
2022/12/19 11:39:51;;;;;;;22.77;7.70;;;4.40;99.90;;;;;;4945777;29;20054;-67
2022/12/19 11:43:05;;;;;;;18.60;7.90;;;4.40;99.90;;;;;;4934418;29;20039;-64
2022/12/19 11:45:42;;;;;;;20.40;8.07;;;4.50;99.90;;;;;;4950455;29;20039;-65
2022/12/19 11:48:25;;;;;;;16.25;7.07;;;4.50;99.90;;;;;;4954232;28;20046;-64
2022/12/19 11:51:38;;;;;;;14.45;5.72;;;4.50;99.90;;;;;;4940722;29;20387;-67
2022/12/19 11:54:29;;;;;;;15.00;5.88;;;4.60;99.90;;;;;;4949692;29;20053;-66
2022/12/19 11:56:56;;;;;;;22.42;6.80;;;4.60;99.90;;;;;;4940762;28;20051;-67
2022/12/19 11:59:30;;;;;;;17.10;6.38;;;4.60;99.90;;;;;;4951128;28;20545;-66
2022/12/19 12:02:53;;;;;;;14.23;4.90;;;4.60;99.90;;;;;;4953500;29;20530;-66
2022/12/19 12:05:43;;;;;;;12.30;5.15;;;4.70;99.90;;;;;;4950591;29;20075;-66
2022/12/19 12:08:55;;;;;;;18.88;8.27;;;4.80;99.90;;;;;;4939971;28;20398;-66
2022/12/19 12:11:25;;;;;;;19.73;7.82;;;4.80;99.90;;;;;;4952951;28;20360;-66
2022/12/19 12:14:10;;;;;;;11.15;5.70;;;4.90;99.90;;;;;;4956780;28;20074;-64
2022/12/19 12:17:03;;;;;;;16.45;7.30;;;4.90;99.90;;;;;;4939401;29;20036;-64
2022/12/19 12:19:50;;;;;;;12.18;7.07;;;4.90;99.90;;;;;;4950682;28;20451;-68
2022/12/19 12:22:49;;;;;;;18.20;7.10;;;4.90;99.90;;;;;;4949085;29;20058;-65
2022/12/19 12:25:21;;;;;;;11.90;5.43;;;4.90;99.90;;;;;;4952157;28;20510;-66
2022/12/19 12:28:03;;;;;;;18.00;7.07;;;4.90;99.90;;;;;;4951821;28;20142;-66
2022/12/19 12:30:44;;;;;;;14.85;6.50;;;5.00;99.90;;;;;;4939993;29;20102;-66
2022/12/19 12:33:49;;;;;;;16.80;6.57;;;5.10;99.90;;;;;;4953410;29;20031;-66
2022/12/19 12:36:34;;;;;;;18.05;6.18;;;5.20;99.90;;;;;;4952081;28;20492;-67
2022/12/19 12:39:21;;;;;;;18.55;6.47;;;5.40;99.90;;;;;;4936807;29;20526;-65
2022/12/19 12:42:05;;;;;;;14.25;6.25;;;5.40;99.90;;;;;;4950814;29;20031;-67
2022/12/19 12:44:37;;;;;;;10.73;5.35;;;5.50;99.90;;;;;;4957987;29;20106;-66
2022/12/19 12:47:24;;;;;;;18.45;6.43;;;5.60;99.90;;;;;;4939600;29;20094;-66
2022/12/19 12:49:59;;;;;;;18.25;7.28;;;5.60;99.90;;;;;;4939044;28;20090;-66
2022/12/19 12:52:36;;;;;;;13.65;6.75;;;5.60;99.90;;;;;;4940172;29;20070;-66
2022/12/19 12:55:12;;;;;;;12.60;6.03;;;5.80;99.90;;;;;;4957804;28;20039;-67
2022/12/19 12:57:38;;;;;;;10.82;5.57;;;5.80;99.90;;;;;;4946776;28;20398;-66
2022/12/19 13:00:26;;;;;;;18.88;5.97;;;5.70;99.90;;;;;;4950564;28;20035;-66
2022/12/19 13:03:00;;;;;;;10.30;5.07;;;5.70;99.90;;;;;;4951927;29;20569;-66
2022/12/19 13:05:53;;;;;;;19.48;7.30;;;5.70;99.90;;;;;;4953955;29;20039;-67
2022/12/19 13:08:46;;;;;;;13.63;5.63;;;5.70;99.90;;;;;;4954500;29;20032;-66
2022/12/19 13:14:34;;;;;;;14.68;6.57;;;5.40;99.90;;;;;;4939580;29;20058;-66
2022/12/19 13:17:07;;;;;;;;;;;5.50;99.90;;;;;;4954054;29;20150;-66
2022/12/19 13:19:38;;;;;;;11.52;5.90;;;5.50;99.90;;;;;;4939176;29;19920;-66
2022/12/19 13:22:07;;;;;;;14.43;6.63;;;5.40;99.90;;;;;;4938836;29;20054;-66
2022/12/19 13:24:58;;;;;;;13.85;6.55;;;5.40;99.90;;;;;;4954460;29;20039;-64
2022/12/19 13:27:57;;;;;;;18.45;7.90;;;5.40;99.90;;;;;;4927422;29;20087;-65